createdAt,value
2023-11-17T00:00:08.078Z,99481.56
2023-11-17T00:02:37.181Z,99490.78
2023-11-17T00:05:04.296Z,99504.78
2023-11-17T00:07:30.927Z,99505.72
2023-11-17T00:09:57.709Z,99508.44
2023-11-17T00:12:25.304Z,99525.00
2023-11-17T00:14:52.243Z,99531.97
2023-11-17T00:17:18.798Z,99527.53
2023-11-17T00:19:47.116Z,99534.97
2023-11-17T00:22:14.751Z,99535.72
2023-11-17T00:24:42.163Z,99544.25
2023-11-17T00:27:14.018Z,99547.66
2023-11-17T00:29:40.693Z,99556.38
2023-11-17T00:32:08.026Z,99555.44
2023-11-17T00:34:36.240Z,99559.88
2023-11-17T00:37:08.317Z,99570.31
2023-11-17T00:39:36.612Z,99565.72
2023-11-17T00:42:04.163Z,99581.25
2023-11-17T00:44:31.724Z,99586.69
2023-11-17T00:46:59.164Z,99592.59
2023-11-17T00:49:26.884Z,99599.56
2023-11-17T00:51:53.562Z,99602.09
2023-11-17T00:54:27.299Z,99608.97
2023-11-17T00:56:57.675Z,99608.22
2023-11-17T00:59:24.173Z,99616.22
2023-11-17T01:01:50.885Z,99611.97
2023-11-17T01:04:18.321Z,99627.78
2023-11-17T01:06:45.197Z,99626.94
2023-11-17T01:09:11.814Z,99639.16
2023-11-17T01:11:40.359Z,99644.50
2023-11-17T01:14:09.417Z,99646.31
2023-11-17T01:16:36.320Z,99648.09
2023-11-17T01:19:02.981Z,99655.81
2023-11-17T01:21:29.986Z,99660.31
2023-11-17T01:23:56.848Z,99666.53
2023-11-17T01:26:24.232Z,99671.59
2023-11-17T01:28:50.790Z,99674.34
2023-11-17T01:31:17.385Z,99678.81
2023-11-17T01:33:45.080Z,99685.13
2023-11-17T01:36:14.747Z,99692.19
2023-11-17T01:38:47.073Z,99699.06
2023-11-17T01:41:19.569Z,99697.34
2023-11-17T01:43:48.700Z,99698.13
2023-11-17T01:46:15.766Z,99717.97
2023-11-17T01:48:42.480Z,99724.16
2023-11-17T01:51:09.090Z,99721.72
2023-11-17T01:53:35.987Z,99727.94
2023-11-17T01:56:02.676Z,99728.59
2023-11-17T01:58:29.312Z,99734.78
2023-11-17T02:00:56.032Z,99739.22
2023-11-17T02:03:23.499Z,99746.09
2023-11-17T02:05:53.853Z,99742.59
2023-11-17T02:08:33.787Z,99754.06
2023-11-17T02:11:10.394Z,99753.22
2023-11-17T02:13:41.019Z,99758.50
2023-11-17T02:16:12.463Z,99755.97
2023-11-17T02:18:46.148Z,99764.59
2023-11-17T02:21:15.484Z,99774.09
2023-11-17T02:23:44.014Z,99780.03
2023-11-17T02:26:19.425Z,99776.56
2023-11-17T02:28:59.409Z,99778.34
2023-11-17T02:31:33.194Z,99775.66
2023-11-17T02:34:04.602Z,99780.97
2023-11-17T02:36:33.981Z,99781.94
2023-11-17T02:39:13.954Z,99778.28
2023-11-17T02:41:58.010Z,99789.84
2023-11-17T02:44:29.535Z,99783.81
2023-11-17T02:47:00.403Z,99785.66
2023-11-17T02:49:36.074Z,99783.81
2023-11-17T02:52:11.195Z,99801.31
2023-11-17T02:54:38.746Z,99803.94
2023-11-17T02:57:05.703Z,99802.22
2023-11-17T02:59:36.353Z,99812.75
2023-11-17T03:02:06.505Z,99817.94
2023-11-17T03:04:33.327Z,99819.91
2023-11-17T03:07:03.701Z,99825.34
2023-11-17T03:09:31.561Z,99825.44
2023-11-17T03:12:03.165Z,99831.72
2023-11-17T03:14:30.073Z,99836.91
2023-11-17T03:16:57.592Z,99833.59
2023-11-17T03:19:25.228Z,99838.03
2023-11-17T03:21:55.292Z,99839.88
2023-11-17T03:24:24.810Z,99833.69
2023-11-17T03:26:56.066Z,99836.13
2023-11-17T03:29:26.401Z,99841.50
2023-11-17T03:31:54.885Z,99858.91
2023-11-17T03:34:30.424Z,99856.44
2023-11-17T03:37:01.959Z,99865.97
2023-11-17T03:39:31.417Z,99864.34
2023-11-17T03:41:59.853Z,99861.72
2023-11-17T03:44:26.550Z,99864.94
2023-11-17T03:46:53.286Z,99862.41
2023-11-17T03:49:19.861Z,99876.31
2023-11-17T03:51:52.529Z,99875.47
2023-11-17T03:54:25.200Z,99876.59
2023-11-17T03:56:57.530Z,99872.41
2023-11-17T03:59:25.842Z,99884.72
2023-11-17T04:01:53.346Z,99888.09
2023-11-17T04:04:20.159Z,99896.00
2023-11-17T04:06:51.273Z,99900.53
2023-11-17T04:09:22.315Z,99904.19
2023-11-17T04:11:50.011Z,99904.09
2023-11-17T04:14:16.756Z,99901.78
2023-11-17T04:16:43.634Z,99903.72
2023-11-17T04:19:10.339Z,99905.53
2023-11-17T04:21:40.199Z,99901.97
2023-11-17T04:24:07.501Z,99902.72
2023-11-17T04:26:35.634Z,99907.91
2023-11-17T04:29:02.128Z,99911.16
2023-11-17T04:31:28.624Z,99912.91
2023-11-17T04:33:55.700Z,99907.75
2023-11-17T04:36:24.977Z,99911.38
2023-11-17T04:38:51.820Z,99913.69
2023-11-17T04:41:20.976Z,99918.09
2023-11-17T04:43:47.666Z,99919.78
2023-11-17T04:46:20.275Z,99913.78
2023-11-17T04:48:47.064Z,99924.31
2023-11-17T04:51:19.295Z,99927.69
2023-11-17T04:53:46.624Z,99933.13
2023-11-17T04:56:14.260Z,99935.00
2023-11-17T04:58:41.173Z,99941.19
2023-11-17T05:01:07.885Z,99935.41
2023-11-17T05:03:35.962Z,99938.13
2023-11-17T05:06:07.212Z,99944.00
2023-11-17T05:08:34.330Z,99948.34
2023-11-17T05:11:01.073Z,99945.69
2023-11-17T05:13:27.911Z,99948.47
2023-11-17T05:15:56.133Z,99952.72
2023-11-17T05:18:22.701Z,99965.06
2023-11-17T05:20:50.246Z,99958.00
2023-11-17T05:23:17.602Z,99947.47
2023-11-17T05:25:44.841Z,99955.31
2023-11-17T05:28:11.794Z,99956.22
2023-11-17T05:30:38.386Z,99956.38
2023-11-17T05:33:05.275Z,99961.50
2023-11-17T05:35:32.947Z,99956.31
2023-11-17T05:37:59.727Z,99957.25
2023-11-17T05:40:26.429Z,99962.34
2023-11-17T05:42:53.488Z,99974.56
2023-11-17T05:45:20.371Z,99973.72
2023-11-17T05:47:46.956Z,99968.47
2023-11-17T05:50:13.726Z,99966.84
2023-11-17T05:52:40.988Z,99966.84
2023-11-17T05:55:08.134Z,99963.63
2023-11-17T05:57:34.765Z,99972.13
2023-11-17T06:00:04.541Z,99966.06
2023-11-17T06:02:38.404Z,99978.41
2023-11-17T06:05:06.028Z,99981.94
2023-11-17T06:07:34.215Z,99978.41
2023-11-17T06:10:01.311Z,99977.53
2023-11-17T06:12:31.817Z,99980.06
2023-11-17T06:14:58.412Z,99989.66
2023-11-17T06:17:26.581Z,99986.91
2023-11-17T06:19:53.306Z,99987.56
2023-11-17T06:22:19.777Z,100000.72
2023-11-17T06:24:46.942Z,99998.09
2023-11-17T06:27:14.222Z,100000.13
2023-11-17T06:29:41.086Z,99999.28
2023-11-17T06:32:07.771Z,99999.28
2023-11-17T06:34:34.415Z,100007.94
2023-11-17T06:37:01.817Z,100004.63
2023-11-17T06:39:30.478Z,100008.38
2023-11-17T06:41:57.075Z,100003.00
2023-11-17T06:44:23.776Z,100008.38
2023-11-17T06:46:51.696Z,100017.00
2023-11-17T06:49:20.784Z,100008.38
2023-11-17T06:51:51.704Z,99999.50
2023-11-17T06:54:19.370Z,100000.47
2023-11-17T06:56:47.640Z,100010.03
2023-11-17T06:59:18.603Z,100015.25
2023-11-17T07:01:47.679Z,100022.88
2023-11-17T07:04:14.435Z,100013.38
2023-11-17T07:06:41.735Z,100017.63
2023-11-17T07:09:18.544Z,100027.31
2023-11-17T07:11:49.042Z,100028.06
2023-11-17T07:14:18.033Z,100033.25
2023-11-17T07:16:46.439Z,100042.59
2023-11-17T07:19:19.381Z,100053.97
2023-11-17T07:21:47.299Z,100046.78
2023-11-17T07:24:15.688Z,100056.97
2023-11-17T07:26:44.738Z,100049.78
2023-11-17T07:29:14.205Z,100044.50
2023-11-17T07:31:47.674Z,100054.84
2023-11-17T07:34:19.064Z,100060.13
2023-11-17T07:36:46.545Z,100056.47
2023-11-17T07:39:20.604Z,100065.06
2023-11-17T07:41:48.133Z,100064.22
2023-11-17T07:44:21.677Z,100076.38
2023-11-17T07:46:48.560Z,100066.59
2023-11-17T07:49:18.659Z,100078.84
2023-11-17T07:51:48.241Z,100072.66
2023-11-17T07:54:17.133Z,100071.97
2023-11-17T07:56:44.168Z,100081.66
2023-11-17T07:59:13.148Z,100083.38
2023-11-17T08:01:41.397Z,100094.66
2023-11-17T08:04:10.040Z,100096.44
2023-11-17T08:06:40.246Z,100098.22
2023-11-17T08:09:12.070Z,100099.81
2023-11-17T08:11:39.007Z,100106.72
2023-11-17T08:14:06.278Z,100097.81
2023-11-17T08:16:34.822Z,100103.09
2023-11-17T08:19:15.013Z,100113.53
2023-11-17T08:21:50.172Z,100112.75
2023-11-17T08:24:20.907Z,100119.75
2023-11-17T08:26:47.514Z,100110.13
2023-11-17T08:29:14.652Z,100124.00
2023-11-17T08:31:41.185Z,100122.16
2023-11-17T08:34:07.766Z,100121.19
2023-11-17T08:36:34.348Z,100119.34
2023-11-17T08:39:00.867Z,100117.28
2023-11-17T08:41:27.337Z,100120.63
2023-11-17T08:43:54.605Z,100109.81
2023-11-17T08:46:26.994Z,100116.66
2023-11-17T08:48:53.884Z,100112.81
2023-11-17T08:51:20.316Z,100115.44
2023-11-17T08:53:47.198Z,100121.66
2023-11-17T08:56:13.792Z,100124.13
2023-11-17T08:58:40.274Z,100126.78
2023-11-17T09:01:08.622Z,100123.25
2023-11-17T09:03:36.059Z,100124.81
2023-11-17T09:06:04.954Z,100129.13
2023-11-17T09:08:32.340Z,100126.44
2023-11-17T09:11:00.790Z,100129.50
2023-11-17T09:13:29.636Z,100125.59
2023-11-17T09:15:56.727Z,100129.66
2023-11-17T09:18:23.288Z,100136.63
2023-11-17T09:20:50.037Z,100132.63
2023-11-17T09:23:16.601Z,100137.81
2023-11-17T09:25:43.201Z,100130.91
2023-11-17T09:28:09.790Z,100138.59
2023-11-17T09:30:38.101Z,100147.34
2023-11-17T09:33:05.113Z,100140.38
2023-11-17T09:35:33.372Z,100146.34
2023-11-17T09:38:01.953Z,100136.53
2023-11-17T09:40:30.457Z,100141.47
2023-11-17T09:42:58.621Z,100145.56
2023-11-17T09:45:26.698Z,100145.22
2023-11-17T09:47:57.002Z,100150.97
2023-11-17T09:50:28.276Z,100148.53
2023-11-17T09:52:56.124Z,100145.91
2023-11-17T09:55:24.062Z,100135.78
2023-11-17T09:57:55.390Z,100138.13
2023-11-17T10:00:28.900Z,100142.16
2023-11-17T10:03:00.749Z,100141.88
2023-11-17T10:05:29.808Z,100148.13
2023-11-17T10:08:01.170Z,100150.06
2023-11-17T10:10:28.373Z,100148.19
2023-11-17T10:12:59.067Z,100149.88
2023-11-17T10:15:29.538Z,100146.41
2023-11-17T10:18:09.298Z,100160.44
2023-11-17T10:20:37.205Z,100147.44
2023-11-17T10:23:05.896Z,100152.63
2023-11-17T10:25:33.962Z,100156.38
2023-11-17T10:28:03.891Z,100157.53
2023-11-17T10:30:35.277Z,100153.38
2023-11-17T10:33:15.911Z,100159.91
2023-11-17T10:36:11.674Z,100161.91
2023-11-17T10:38:40.040Z,100156.44
2023-11-17T10:41:23.227Z,100157.22
2023-11-17T10:43:51.756Z,100161.91
2023-11-17T10:46:28.854Z,100162.16
2023-11-17T10:49:00.670Z,100161.13
2023-11-17T10:51:28.635Z,100157.06
2023-11-17T10:54:15.697Z,100157.91
2023-11-17T10:56:44.461Z,100160.53
2023-11-17T10:59:17.035Z,100159.94
2023-11-17T11:01:44.157Z,100162.75
2023-11-17T11:04:16.084Z,100161.75
2023-11-17T11:06:48.470Z,100162.75
2023-11-17T11:09:18.850Z,100155.44
2023-11-17T11:11:48.145Z,100159.41
2023-11-17T11:14:18.154Z,100160.09
2023-11-17T11:16:48.682Z,100154.06
2023-11-17T11:19:24.626Z,100150.66
2023-11-17T11:22:01.600Z,100150.56
2023-11-17T11:24:37.851Z,100153.91
2023-11-17T11:27:06.903Z,100148.63
2023-11-17T11:29:39.556Z,100165.13
2023-11-17T11:32:07.435Z,100151.34
2023-11-17T11:34:35.969Z,100155.66
2023-11-17T11:37:04.546Z,100163.34
2023-11-17T11:39:32.445Z,100156.53
2023-11-17T11:42:01.783Z,100156.63
2023-11-17T11:44:28.630Z,100161.81
2023-11-17T11:46:57.002Z,100167.25
2023-11-17T11:49:23.989Z,100169.38
2023-11-17T11:52:00.579Z,100165.13
2023-11-17T11:54:27.346Z,100161.47
2023-11-17T11:56:55.780Z,100164.00
2023-11-17T11:59:22.462Z,100161.47
2023-11-17T12:01:50.524Z,100153.84
2023-11-17T12:04:20.274Z,100160.88
2023-11-17T12:06:50.281Z,100161.38
2023-11-17T12:09:21.568Z,100148.34
2023-11-17T12:11:50.802Z,100159.34
2023-11-17T12:14:19.419Z,100163.50
2023-11-17T12:16:49.860Z,100161.81
2023-11-17T12:19:17.915Z,100162.41
2023-11-17T12:21:49.812Z,100165.19
2023-11-17T12:24:24.829Z,100174.06
2023-11-17T12:26:53.354Z,100161.81
2023-11-17T12:29:25.425Z,100162.91
2023-11-17T12:31:53.493Z,100161.63
2023-11-17T12:34:20.919Z,100163.34
2023-11-17T12:36:47.785Z,100161.53
2023-11-17T12:39:17.446Z,100165.88
2023-11-17T12:41:52.161Z,100170.91
2023-11-17T12:44:19.712Z,100172.53
2023-11-17T12:46:49.784Z,100174.34
2023-11-17T12:49:16.741Z,100179.59
2023-11-17T12:51:46.178Z,100181.63
2023-11-17T12:54:19.685Z,100183.31
2023-11-17T12:56:46.252Z,100185.97
2023-11-17T12:59:12.862Z,100187.91
2023-11-17T13:01:39.741Z,100191.75
2023-11-17T13:04:06.838Z,100191.66
2023-11-17T13:06:33.707Z,100192.34
2023-11-17T13:09:01.016Z,100202.97
2023-11-17T13:11:33.943Z,100199.47
2023-11-17T13:14:01.147Z,100208.41
2023-11-17T13:16:30.582Z,100204.94
2023-11-17T13:18:57.721Z,100198.63
2023-11-17T13:21:25.934Z,100197.94
2023-11-17T13:23:52.642Z,100199.56
2023-11-17T13:26:26.037Z,100200.25
2023-11-17T13:28:52.645Z,100209.69
2023-11-17T13:31:20.197Z,100207.66
2023-11-17T13:33:53.283Z,100207.59
2023-11-17T13:36:33.246Z,100200.44
2023-11-17T13:39:01.660Z,100200.53
2023-11-17T13:41:34.170Z,100206.50
2023-11-17T13:44:02.081Z,100209.03
2023-11-17T13:46:34.661Z,100202.66
2023-11-17T13:49:24.867Z,100199.91
2023-11-17T13:51:57.957Z,100195.59
2023-11-17T13:54:30.897Z,100203.34
2023-11-17T13:56:58.117Z,100211.34
2023-11-17T13:59:26.993Z,100212.34
2023-11-17T14:01:57.720Z,100221.63
2023-11-17T14:04:28.119Z,100220.44
2023-11-17T14:06:56.267Z,100223.44
2023-11-17T14:09:25.159Z,100218.50
2023-11-17T14:11:52.613Z,100215.63
2023-11-17T14:14:20.232Z,100213.66
2023-11-17T14:16:50.274Z,100216.72
2023-11-17T14:19:17.879Z,100213.91
2023-11-17T14:21:48.008Z,100222.94
2023-11-17T14:24:17.306Z,100226.59
2023-11-17T14:26:53.623Z,100228.31
2023-11-17T14:29:20.976Z,100229.59
2023-11-17T14:31:50.847Z,100220.78
2023-11-17T14:34:23.532Z,100220.72
2023-11-17T14:36:50.351Z,100222.50
2023-11-17T14:39:17.123Z,100229.50
2023-11-17T14:41:45.063Z,100223.38
2023-11-17T14:44:11.691Z,100226.94
2023-11-17T14:46:41.330Z,100230.66
2023-11-17T14:49:08.159Z,100238.72
2023-11-17T14:51:36.448Z,100236.97
2023-11-17T14:54:03.022Z,100239.75
2023-11-17T14:56:29.654Z,100242.81
2023-11-17T14:58:59.683Z,100241.19
2023-11-17T15:01:28.463Z,100240.16
2023-11-17T15:03:55.359Z,100238.41
2023-11-17T15:06:21.950Z,100231.50
2023-11-17T15:08:50.451Z,100242.06
2023-11-17T15:11:22.106Z,100240.59
2023-11-17T15:13:58.516Z,100241.38
2023-11-17T15:16:29.776Z,100244.00
2023-11-17T15:18:59.680Z,100237.97
2023-11-17T15:21:29.784Z,100248.50
2023-11-17T15:23:56.544Z,100240.09
2023-11-17T15:26:25.109Z,100260.16
2023-11-17T15:28:53.712Z,100261.97
2023-11-17T15:31:25.082Z,100264.06
2023-11-17T15:33:52.365Z,100272.84
2023-11-17T15:36:20.891Z,100286.78
2023-11-17T15:38:48.174Z,100290.44
2023-11-17T15:41:21.665Z,100311.94
2023-11-17T15:43:49.125Z,100319.53
2023-11-17T15:46:18.860Z,100315.38
2023-11-17T15:48:45.473Z,100320.41
2023-11-17T15:51:12.017Z,100319.66
2023-11-17T15:53:40.492Z,100318.16
2023-11-17T15:56:08.535Z,100318.72
2023-11-17T15:58:35.036Z,100322.44
2023-11-17T16:01:05.034Z,100320.88
2023-11-17T16:07:55.122Z,100299.97
2023-11-17T16:10:24.068Z,100309.78
2023-11-17T16:12:52.115Z,100309.31
2023-11-17T16:15:24.833Z,100317.59
